createdAt,value
2023-04-09T00:00:26.144Z,23.58
2023-04-09T00:05:27.779Z,26.98
2023-04-09T00:10:29.282Z,20.95
2023-04-09T00:15:31.873Z,24.35
2023-04-09T00:20:33.544Z,24.05
2023-04-09T00:25:35.195Z,27.80
2023-04-09T00:30:36.759Z,29.00
2023-04-09T00:35:38.278Z,27.60
2023-04-09T00:40:39.895Z,19.60
2023-04-09T00:45:41.691Z,24.23
2023-04-09T00:50:43.452Z,22.45
2023-04-09T00:55:45.924Z,25.30
2023-04-09T01:00:47.631Z,23.83
2023-04-09T01:06:00.515Z,25.15
2023-04-09T01:11:32.132Z,26.42
2023-04-09T01:16:36.946Z,25.88
2023-04-09T01:21:41.997Z,23.48
2023-04-09T01:27:04.987Z,27.10
2023-04-09T01:32:25.825Z,25.23
2023-04-09T01:37:27.697Z,25.67
2023-04-09T01:42:29.710Z,20.08
2023-04-09T01:47:31.972Z,24.02
2023-04-09T01:52:34.076Z,29.50
2023-04-09T01:57:35.578Z,28.20
2023-04-09T02:02:48.668Z,27.17
2023-04-09T02:07:56.930Z,18.67
2023-04-09T02:13:01.390Z,20.60
2023-04-09T02:18:02.963Z,27.80
2023-04-09T02:23:04.588Z,20.27
2023-04-09T02:28:06.072Z,27.60
2023-04-09T02:33:07.886Z,24.70
2023-04-09T02:38:14.456Z,18.90
2023-04-09T02:43:16.008Z,21.63
2023-04-09T02:48:17.466Z,29.55
2023-04-09T02:53:21.431Z,24.05
2023-04-09T02:58:22.979Z,17.15
2023-04-09T03:03:24.657Z,25.65
2023-04-09T03:08:26.417Z,17.65
2023-04-09T03:13:28.301Z,17.75
2023-04-09T03:18:29.814Z,19.60
2023-04-09T03:23:34.810Z,18.13
2023-04-09T03:28:36.621Z,18.55
2023-04-09T03:33:38.353Z,24.52
2023-04-09T03:38:39.973Z,12.63
2023-04-09T03:43:48.613Z,17.92
2023-04-09T03:48:55.520Z,20.92
2023-04-09T03:54:00.713Z,18.20
2023-04-09T03:59:02.548Z,23.95
2023-04-09T04:04:12.189Z,16.10
2023-04-09T04:09:27.549Z,17.95
2023-04-09T04:14:32.504Z,20.77
2023-04-09T04:19:40.761Z,16.65
2023-04-09T04:24:42.881Z,23.42
2023-04-09T04:29:44.560Z,18.02
2023-04-09T04:34:57.402Z,15.30
2023-04-09T04:40:02.412Z,23.15
2023-04-09T04:45:06.668Z,18.85
2023-04-09T04:50:27.148Z,14.93
2023-04-09T04:55:37.279Z,23.17
2023-04-09T05:00:39.235Z,15.93
2023-04-09T05:05:41.588Z,21.58
2023-04-09T05:10:44.560Z,15.18
2023-04-09T05:15:47.377Z,12.43
2023-04-09T05:20:48.967Z,13.75
2023-04-09T05:25:51.242Z,16.80
2023-04-09T05:31:01.008Z,14.18
2023-04-09T05:36:02.694Z,13.73
2023-04-09T05:41:04.290Z,20.90
2023-04-09T05:46:09.217Z,15.85
2023-04-09T05:51:11.044Z,16.38
2023-04-09T05:56:15.452Z,13.13
2023-04-09T06:01:25.006Z,13.18
2023-04-09T06:06:27.024Z,13.80
2023-04-09T06:11:28.489Z,11.52
2023-04-09T06:16:30.001Z,11.77
2023-04-09T06:21:33.196Z,13.10
2023-04-09T06:26:34.744Z,14.57
2023-04-09T06:31:36.361Z,11.32
2023-04-09T06:36:40.189Z,19.08
2023-04-09T06:41:41.744Z,14.25
2023-04-09T06:46:56.124Z,12.10
2023-04-09T06:51:57.978Z,12.32
2023-04-09T06:56:59.452Z,16.50
2023-04-09T07:02:01.149Z,12.25
2023-04-09T07:07:03.028Z,13.93
2023-04-09T07:12:04.556Z,10.48
2023-04-09T07:17:06.111Z,15.90
2023-04-09T07:22:07.565Z,20.02
2023-04-09T07:27:09.764Z,13.93
2023-04-09T07:32:11.489Z,11.63
2023-04-09T07:37:13.047Z,20.85
2023-04-09T07:42:14.611Z,14.40
2023-04-09T07:47:16.170Z,17.70
2023-04-09T07:52:17.711Z,17.70
2023-04-09T07:57:19.241Z,16.13
2023-04-09T08:02:21.207Z,13.75
2023-04-09T08:07:22.878Z,18.08
2023-04-09T08:12:24.385Z,15.77
2023-04-09T08:17:25.881Z,15.73
2023-04-09T08:22:27.388Z,12.98
2023-04-09T08:27:29.012Z,12.43
2023-04-09T08:32:30.576Z,15.00
2023-04-09T08:37:32.492Z,14.13
2023-04-09T08:42:35.661Z,14.02
2023-04-09T08:47:38.019Z,12.48
2023-04-09T08:52:40.430Z,13.02
2023-04-09T08:57:42.326Z,14.63
2023-04-09T09:03:04.465Z,13.80
2023-04-09T09:08:10.745Z,15.35
2023-04-09T09:13:26.213Z,13.77
2023-04-09T09:18:42.217Z,13.73
2023-04-09T09:23:44.415Z,12.18
2023-04-09T09:28:48.111Z,16.00
2023-04-09T09:33:51.103Z,13.23
2023-04-09T09:38:55.578Z,16.60
2023-04-09T09:43:57.653Z,13.15
2023-04-09T09:48:59.243Z,15.50
2023-04-09T09:54:02.238Z,12.65
2023-04-09T09:59:27.077Z,12.00
2023-04-09T10:04:29.635Z,13.38
2023-04-09T10:09:32.382Z,15.48
2023-04-09T10:14:35.794Z,14.25
2023-04-09T10:19:46.503Z,12.18
2023-04-09T10:24:48.332Z,13.70
2023-04-09T10:29:52.042Z,15.30
2023-04-09T10:34:58.390Z,13.73
2023-04-09T10:39:59.939Z,16.50
2023-04-09T10:45:11.456Z,11.70
2023-04-09T10:50:18.298Z,13.65
2023-04-09T10:55:49.893Z,15.13
2023-04-09T11:00:51.726Z,13.15
2023-04-09T11:06:01.592Z,20.13
2023-04-09T11:11:03.899Z,10.82
2023-04-09T11:16:07.009Z,9.52
2023-04-09T11:21:10.186Z,13.02
2023-04-09T11:26:11.705Z,11.95
2023-04-09T11:31:13.276Z,11.20
2023-04-09T11:36:14.916Z,16.98
2023-04-09T11:41:16.643Z,10.38
2023-04-09T11:46:18.435Z,12.50
2023-04-09T11:51:20.187Z,11.07
2023-04-09T11:56:21.694Z,14.90
2023-04-09T12:01:23.310Z,12.00
2023-04-09T12:06:25.661Z,12.68
2023-04-09T12:11:31.811Z,12.80
2023-04-09T12:16:36.305Z,13.43
2023-04-09T12:21:52.973Z,10.40
2023-04-09T12:26:54.463Z,12.45
2023-04-09T12:31:56.019Z,12.63
2023-04-09T12:36:57.532Z,16.00
2023-04-09T12:41:59.014Z,13.57
2023-04-09T12:47:00.704Z,12.13
2023-04-09T12:52:02.401Z,11.63
2023-04-09T12:57:03.887Z,16.48
2023-04-09T13:02:05.549Z,14.95
2023-04-09T13:07:07.369Z,14.85
2023-04-09T13:12:09.039Z,13.52
2023-04-09T13:17:10.865Z,13.50
2023-04-09T13:22:12.599Z,13.10
2023-04-09T13:27:14.417Z,12.07
2023-04-09T13:32:18.166Z,15.88
2023-04-09T13:37:19.649Z,11.40
2023-04-09T13:42:21.156Z,13.43
2023-04-09T13:47:23.767Z,13.18
2023-04-09T13:52:29.277Z,11.55
2023-04-09T13:57:31.207Z,12.40
2023-04-09T14:02:32.897Z,12.88
2023-04-09T14:07:34.609Z,9.65
2023-04-09T14:12:36.471Z,11.60
2023-04-09T14:17:38.124Z,9.70
2023-04-09T14:22:39.641Z,9.15
2023-04-09T14:27:41.189Z,9.63
2023-04-09T14:32:43.139Z,15.35
2023-04-09T14:37:44.788Z,10.13
2023-04-09T14:42:46.265Z,11.63
2023-04-09T14:47:47.853Z,9.15
2023-04-09T14:52:49.469Z,9.57
2023-04-09T14:57:50.930Z,9.02
2023-04-09T15:02:52.582Z,12.00
2023-04-09T15:07:55.375Z,10.18
2023-04-09T15:12:57.043Z,9.07
2023-04-09T15:18:05.353Z,9.25
2023-04-09T15:23:06.953Z,9.63
2023-04-09T15:28:08.433Z,11.27
2023-04-09T15:33:09.965Z,10.48
2023-04-09T15:38:11.766Z,9.10
2023-04-09T15:43:13.289Z,10.85
2023-04-09T15:48:14.808Z,9.35
2023-04-09T15:53:16.335Z,8.98
2023-04-09T15:58:17.878Z,8.80
2023-04-09T16:03:19.465Z,9.52
2023-04-09T16:08:20.938Z,12.48
2023-04-09T16:13:22.746Z,11.35
2023-04-09T16:18:25.684Z,9.88
2023-04-09T16:23:30.297Z,9.45
2023-04-09T16:28:32.366Z,10.35
2023-04-09T16:33:33.904Z,9.98
2023-04-09T16:38:35.466Z,10.70
2023-04-09T16:43:36.947Z,12.13
2023-04-09T16:48:41.637Z,11.40
2023-04-09T16:53:43.287Z,12.35
2023-04-09T16:58:46.456Z,9.20
2023-04-09T17:03:49.198Z,8.35
2023-04-09T17:08:50.889Z,12.73
2023-04-09T17:13:54.020Z,9.68
2023-04-09T17:18:55.874Z,11.70
2023-04-09T17:23:57.531Z,11.00
2023-04-09T17:28:59.002Z,11.55
2023-04-09T17:34:00.539Z,11.93
2023-04-09T17:39:02.965Z,11.55
2023-04-09T17:44:04.521Z,11.00
2023-04-09T17:49:06.259Z,10.30
2023-04-09T17:54:07.852Z,12.60
2023-04-09T17:59:09.349Z,12.15
2023-04-09T18:04:11.213Z,10.90
2023-04-09T18:09:13.403Z,13.50
2023-04-09T18:14:15.493Z,10.93
2023-04-09T18:19:17.028Z,13.45
2023-04-09T18:24:18.550Z,13.93
2023-04-09T18:29:20.178Z,9.82
2023-04-09T18:34:22.403Z,11.57
2023-04-09T18:39:24.326Z,12.02
2023-04-09T18:44:26.156Z,13.15
2023-04-09T18:49:27.632Z,12.90
2023-04-09T18:54:29.166Z,9.07
2023-04-09T18:59:33.294Z,9.52
2023-04-09T19:04:36.757Z,14.50
2023-04-09T19:09:38.603Z,11.02
2023-04-09T19:14:40.753Z,14.38
2023-04-09T19:19:42.688Z,12.00
2023-04-09T19:24:44.705Z,16.45
2023-04-09T19:29:46.920Z,14.02
2023-04-09T19:34:48.408Z,18.02
2023-04-09T19:39:49.878Z,13.25
2023-04-09T19:44:51.356Z,15.27
2023-04-09T19:49:55.676Z,14.77
2023-04-09T19:54:57.760Z,17.98
2023-04-09T19:59:59.229Z,16.17
2023-04-09T20:05:00.809Z,14.35
2023-04-09T20:10:02.792Z,17.15
2023-04-09T20:15:04.672Z,19.48
2023-04-09T20:20:06.691Z,18.63
2023-04-09T20:25:09.963Z,19.52
2023-04-09T20:30:11.740Z,17.52
2023-04-09T20:35:14.438Z,15.23
2023-04-09T20:40:16.359Z,18.90
2023-04-09T20:45:17.853Z,18.35
2023-04-09T20:50:19.537Z,16.63
2023-04-09T20:55:21.160Z,16.25
2023-04-09T21:00:22.880Z,17.50
2023-04-09T21:05:24.554Z,22.10
2023-04-09T21:10:26.050Z,20.58
2023-04-09T21:15:27.740Z,21.17
2023-04-09T21:20:29.211Z,15.15
2023-04-09T21:25:30.742Z,23.92
2023-04-09T21:30:33.898Z,12.82
2023-04-09T21:35:36.354Z,14.07
2023-04-09T21:40:37.943Z,14.13
2023-04-09T21:45:40.070Z,13.98
2023-04-09T21:50:41.631Z,15.18
2023-04-09T21:55:43.178Z,17.70
2023-04-09T22:00:44.691Z,17.70
2023-04-09T22:05:46.209Z,13.77
2023-04-09T22:10:47.738Z,14.23
2023-04-09T22:15:49.318Z,12.68
2023-04-09T22:20:50.799Z,13.20
2023-04-09T22:26:04.723Z,14.00
2023-04-09T22:31:06.409Z,12.77
2023-04-09T22:36:08.182Z,11.52
2023-04-09T22:46:11.795Z,10.27
2023-04-09T22:51:13.839Z,13.82
2023-04-09T22:56:15.514Z,13.77
2023-04-09T23:01:21.823Z,10.90
2023-04-09T23:06:25.160Z,12.70
2023-04-09T23:11:27.181Z,14.52
2023-04-09T23:16:28.871Z,12.45
2023-04-09T23:21:31.626Z,15.07
2023-04-09T23:26:33.153Z,12.85
2023-04-09T23:31:34.627Z,14.55
2023-04-09T23:36:36.226Z,15.85
2023-04-09T23:41:37.909Z,13.38
2023-04-09T23:46:39.475Z,11.23
2023-04-09T23:51:41.053Z,13.68
2023-04-09T23:56:42.592Z,12.73
